Time;durP1;ratioP1;P1;durP2;ratioP2;P2;SDS_P1;SDS_P2;PMS_P1;PMS_P2;Temp;Humidity;BMP_temperature;BMP_pressure;BME280_temperature;BME280_humidity;BME280_pressure;Samples;Min_cycle;Max_cycle;Signal;HPM_P1;HPM_P2
2023/04/06 00:00:52;;;;;;;10.40;7.50;;;9.70;99.90;;;8.88;99.52;101582.41;4154945;28;20022;-81
2023/04/06 00:02:53;;;;;;;11.98;8.32;;;9.70;99.90;;;8.89;99.43;101581.44;4137362;28;20094;-81
2023/04/06 00:04:54;;;;;;;10.82;8.43;;;9.70;99.90;;;8.87;100.00;101566.72;4137159;28;20030;-81
2023/04/06 00:06:56;;;;;;;14.07;8.30;;;9.70;99.90;;;8.83;100.00;101566.16;4137246;28;20030;-81
2023/04/06 00:08:57;;;;;;;14.00;8.82;;;9.70;99.90;;;8.76;100.00;101554.47;4153455;28;20068;-81
2023/04/06 00:10:58;;;;;;;11.77;8.85;;;9.60;99.90;;;8.76;100.00;101569.41;4137160;28;20030;-81
2023/04/06 00:12:59;;;;;;;10.88;8.13;;;9.60;99.90;;;8.73;100.00;101565.22;4154504;28;20059;-82
2023/04/06 00:15:01;;;;;;;10.40;8.25;;;9.60;99.90;;;8.72;100.00;101568.00;4154711;28;20036;-82
2023/04/06 00:17:02;;;;;;;11.20;8.15;;;9.50;99.90;;;8.69;100.00;101560.34;4155853;28;20112;-81
2023/04/06 00:19:03;;;;;;;9.88;7.35;;;9.50;99.90;;;8.66;100.00;101564.03;4137030;28;20042;-82
2023/04/06 00:21:04;;;;;;;13.88;8.85;;;9.50;99.90;;;8.62;100.00;101560.00;4154503;28;20032;-81
2023/04/06 00:23:05;;;;;;;11.88;8.27;;;9.40;99.90;;;8.57;100.00;101563.97;4154665;28;20030;-81
2023/04/06 00:25:07;;;;;;;12.52;8.68;;;9.40;99.90;;;8.54;100.00;101562.38;4136927;28;20038;-82
2023/04/06 00:27:08;;;;;;;13.50;9.07;;;9.30;99.90;;;8.52;100.00;101569.56;4137157;28;20421;-82
2023/04/06 00:29:09;;;;;;;12.43;8.38;;;9.40;99.90;;;8.53;100.00;101565.16;4154324;28;20030;-81
2023/04/06 00:31:10;;;;;;;10.95;7.15;;;9.30;99.90;;;8.52;100.00;101560.84;4155355;28;20062;-82
2023/04/06 00:33:11;;;;;;;10.60;7.72;;;9.30;99.90;;;8.55;100.00;101571.13;4154148;28;20112;-81
2023/04/06 00:35:12;;;;;;;11.73;6.80;;;9.30;99.90;;;8.58;100.00;101568.25;4154245;28;20053;-82
2023/04/06 00:37:12;;;;;;;11.60;8.13;;;9.30;99.90;;;8.60;100.00;101564.53;4154296;28;20030;-81
2023/04/06 00:39:13;;;;;;;10.27;7.63;;;9.40;99.90;;;8.62;100.00;101556.53;4154343;28;20069;-82
2023/04/06 00:41:14;;;;;;;12.23;9.15;;;9.40;99.90;;;8.64;100.00;101557.22;4160882;28;20030;-82
2023/04/06 00:43:15;;;;;;;11.93;7.80;;;9.40;99.90;;;8.66;100.00;101558.78;4158886;28;20085;-82
2023/04/06 00:45:16;;;;;;;11.95;8.68;;;9.40;99.90;;;8.66;100.00;101547.44;4154056;28;20113;-81
2023/04/06 00:47:17;;;;;;;12.45;9.10;;;9.50;99.90;;;8.67;100.00;101549.94;4136885;28;20081;-82
2023/04/06 00:49:18;;;;;;;10.23;7.60;;;9.50;99.90;;;8.71;100.00;101548.75;4153995;28;20037;-83
2023/04/06 00:51:19;;;;;;;10.70;7.82;;;9.50;99.90;;;8.70;100.00;101533.06;4161232;28;20029;-83
2023/04/06 00:53:21;;;;;;;14.35;8.38;;;9.50;99.90;;;8.70;100.00;101538.31;4156678;28;20033;-82
2023/04/06 00:55:22;;;;;;;11.88;7.88;;;9.50;99.90;;;8.69;100.00;101534.84;4139138;28;20034;-82
2023/04/06 00:57:23;;;;;;;13.45;8.38;;;9.50;99.90;;;8.69;100.00;101520.91;4153784;28;20054;-82
2023/04/06 00:59:24;;;;;;;12.80;7.95;;;9.50;99.90;;;8.67;100.00;101523.63;4153983;28;20030;-82
2023/04/06 01:01:25;;;;;;;11.20;8.23;;;9.50;99.90;;;8.64;100.00;101523.88;4161573;28;20028;-82
2023/04/06 01:03:26;;;;;;;11.00;8.20;;;9.50;99.90;;;8.66;100.00;101531.66;4153629;28;20041;-82
2023/04/06 01:05:27;;;;;;;11.25;8.13;;;9.40;99.90;;;8.61;100.00;101528.56;4154124;28;20046;-82
2023/04/06 01:07:28;;;;;;;11.13;7.20;;;9.40;99.90;;;8.55;100.00;101535.16;4153856;28;20030;-82
2023/04/06 01:09:30;;;;;;;12.63;7.80;;;9.40;99.90;;;8.56;100.00;101530.72;4136331;28;20078;-82
2023/04/06 01:11:31;;;;;;;12.50;8.43;;;9.40;99.90;;;8.56;100.00;101531.56;4163389;28;20040;-80
2023/04/06 01:13:32;;;;;;;9.75;8.23;;;9.40;99.90;;;8.54;100.00;101520.31;4147214;28;20033;-81
2023/04/06 01:15:35;;;;;;;12.68;8.18;;;9.40;99.90;;;8.54;100.00;101528.22;4153805;28;20032;-81
2023/04/06 01:17:36;;;;;;;10.07;7.47;;;9.40;99.90;;;8.57;100.00;101524.53;4136133;28;20098;-82
2023/04/06 01:19:37;;;;;;;13.30;8.45;;;9.40;99.90;;;8.57;100.00;101530.59;4153741;28;20026;-82
2023/04/06 01:21:39;;;;;;;13.38;8.65;;;9.40;99.90;;;8.57;100.00;101514.81;4156255;28;20503;-82
2023/04/06 01:23:42;;;;;;;10.23;8.10;;;9.40;99.90;;;8.58;100.00;101513.88;4136231;28;20027;-81
2023/04/06 01:25:42;;;;;;;10.18;8.00;;;9.40;99.90;;;8.58;100.00;101516.50;4136270;28;20027;-82
2023/04/06 01:27:43;;;;;;;10.55;8.02;;;9.40;99.90;;;8.62;100.00;101519.72;4153643;28;20037;-82
2023/04/06 01:29:45;;;;;;;12.80;9.00;;;9.40;99.90;;;8.63;100.00;101522.19;4152196;28;20029;-81
2023/04/06 01:31:46;;;;;;;10.73;8.30;;;9.40;99.90;;;8.65;100.00;101520.31;4163672;28;20101;-81
2023/04/06 01:33:47;;;;;;;12.80;9.27;;;9.40;99.90;;;8.65;100.00;101519.47;4138167;28;20030;-82
2023/04/06 01:35:47;;;;;;;10.95;8.85;;;9.50;99.90;;;8.64;100.00;101518.63;4153537;28;20034;-82
2023/04/06 01:37:48;;;;;;;11.90;9.02;;;9.50;99.90;;;8.65;100.00;101524.72;4153499;28;20038;-81
2023/04/06 01:39:50;;;;;;;11.60;8.43;;;9.50;99.90;;;8.69;100.00;101526.97;4153468;28;20389;-81
2023/04/06 01:41:51;;;;;;;12.32;8.18;;;9.50;99.90;;;8.70;100.00;101531.28;4146336;28;20057;-82
2023/04/06 01:43:54;;;;;;;12.27;8.85;;;9.50;99.90;;;8.72;100.00;101524.09;4152515;28;20049;-82
2023/04/06 01:45:55;;;;;;;14.20;9.52;;;9.50;99.90;;;8.74;100.00;101530.09;4126049;28;20050;-82
2023/04/06 01:47:56;;;;;;;13.60;9.82;;;9.50;99.90;;;8.77;100.00;101534.25;4135798;28;20406;-82
2023/04/06 01:49:57;;;;;;;14.95;9.75;;;9.60;99.90;;;8.77;100.00;101537.72;4135869;28;20023;-82
2023/04/06 01:51:57;;;;;;;15.45;9.60;;;9.60;99.90;;;8.77;100.00;101536.88;4162188;28;20040;-81
2023/04/06 01:53:58;;;;;;;14.77;10.23;;;9.60;99.90;;;8.76;100.00;101530.78;4152468;28;20037;-82
2023/04/06 01:55:59;;;;;;;15.20;9.23;;;9.60;99.90;;;8.77;100.00;101521.94;4135843;28;20151;-82
2023/04/06 01:58:00;;;;;;;15.52;10.90;;;9.50;99.90;;;8.78;100.00;101520.97;4135748;28;20031;-82
2023/04/06 02:00:01;;;;;;;11.63;8.98;;;9.60;99.90;;;8.78;100.00;101520.97;4152936;28;20061;-82
2023/04/06 02:02:02;;;;;;;16.90;9.43;;;9.60;99.90;;;8.78;100.00;101520.16;4159985;28;20444;-82
2023/04/06 02:04:03;;;;;;;15.73;9.93;;;9.60;99.90;;;8.77;100.00;101514.03;4135416;28;20521;-82
2023/04/06 02:06:04;;;;;;;12.95;9.82;;;9.60;99.90;;;8.79;100.00;101516.53;4168164;28;20092;-82
2023/04/06 02:08:05;;;;;;;12.05;9.20;;;9.60;99.90;;;8.78;100.00;101515.69;4152847;28;20026;-82
2023/04/06 02:10:13;;;;;;;11.10;8.85;;;9.60;99.90;;;8.80;100.00;101503.28;4152957;28;20109;-83
2023/04/06 02:12:14;;;;;;;13.52;9.88;;;9.60;99.90;;;8.78;100.00;101493.84;4157219;28;20050;-82
2023/04/06 02:14:14;;;;;;;13.30;9.63;;;9.60;99.90;;;8.79;100.00;101501.59;4152949;28;20443;-82
2023/04/06 02:16:15;;;;;;;13.43;9.50;;;9.60;99.90;;;8.78;100.00;101492.03;4135328;28;20054;-81
2023/04/06 02:18:18;;;;;;;13.10;10.07;;;9.60;99.90;;;8.78;100.00;101499.91;4152723;28;20038;-81
2023/04/06 02:20:19;;;;;;;12.43;9.55;;;9.60;99.90;;;8.74;100.00;101490.63;4152868;28;20117;-82
2023/04/06 02:22:20;;;;;;;13.27;10.10;;;9.50;99.90;;;8.71;100.00;101493.50;4137708;28;20030;-82
2023/04/06 02:24:21;;;;;;;14.40;9.65;;;9.50;99.90;;;8.64;100.00;101492.31;4152640;28;20025;-82
2023/04/06 02:26:22;;;;;;;13.00;9.43;;;9.50;99.90;;;8.60;100.00;101483.00;4135427;28;20472;-82
2023/04/06 02:28:22;;;;;;;10.63;8.60;;;9.50;99.90;;;8.59;100.00;101494.50;4152936;28;20021;-82
2023/04/06 02:30:23;;;;;;;12.30;8.82;;;9.40;99.90;;;8.56;100.00;101486.03;4152851;28;20076;-82
2023/04/06 02:32:25;;;;;;;13.98;9.00;;;9.40;99.90;;;8.56;100.00;101494.75;4152694;28;20484;-81
2023/04/06 02:34:25;;;;;;;12.05;9.70;;;9.40;99.90;;;8.55;100.00;101500.97;4152340;28;20049;-81
2023/04/06 02:36:26;;;;;;;14.52;9.38;;;9.40;99.90;;;8.51;100.00;101498.72;4135195;28;20031;-81
2023/04/06 02:38:27;;;;;;;14.02;9.48;;;9.40;99.90;;;8.56;100.00;101505.28;4152554;28;20065;-82
2023/04/06 02:40:28;;;;;;;13.35;8.93;;;9.40;99.90;;;8.57;100.00;101508.75;4152391;28;20033;-82
2023/04/06 02:42:29;;;;;;;10.77;8.55;;;9.30;99.90;;;8.56;100.00;101504.44;4162661;28;20030;-82
2023/04/06 02:44:30;;;;;;;10.50;8.63;;;9.40;99.90;;;8.58;100.00;101505.13;4118890;28;20093;-82
2023/04/06 02:46:31;;;;;;;11.63;8.65;;;9.40;99.90;;;8.59;100.00;101493.66;4158659;28;20033;-82
2023/04/06 02:48:35;;;;;;;11.23;8.68;;;9.40;99.90;;;8.59;100.00;101498.94;4137432;28;20030;-82
2023/04/06 02:50:36;;;;;;;12.82;8.98;;;9.40;99.90;;;8.62;100.00;101493.41;4152526;28;20022;-82
2023/04/06 02:52:37;;;;;;;11.65;8.85;;;9.40;99.90;;;8.64;100.00;101502.84;4160807;28;20033;-82
2023/04/06 02:54:38;;;;;;;14.75;9.70;;;9.40;99.90;;;8.66;100.00;101502.72;4152399;28;20069;-82
2023/04/06 02:56:39;;;;;;;16.58;9.18;;;9.50;99.90;;;8.65;100.00;101494.00;4152348;28;20025;-81
2023/04/06 02:58:40;;;;;;;15.85;9.27;;;9.50;99.90;;;8.67;100.00;101492.06;4152437;28;20037;-81
2023/04/06 03:00:41;;;;;;;15.50;9.73;;;9.50;99.90;;;8.67;100.00;101480.72;4152457;28;20079;-81
2023/04/06 03:02:42;;;;;;;12.90;9.30;;;9.50;99.90;;;8.67;100.00;101478.09;4140516;28;20080;-82
2023/04/06 03:04:44;;;;;;;11.88;8.95;;;9.50;99.90;;;8.67;100.00;101480.72;4152400;28;20026;-82
2023/04/06 03:06:45;;;;;;;14.02;8.95;;;9.50;99.90;;;8.63;100.00;101479.31;4140359;28;20081;-82
2023/04/06 03:08:47;;;;;;;13.48;9.63;;;9.40;99.90;;;8.60;100.00;101475.13;4140103;28;20019;-80
2023/04/06 03:10:47;;;;;;;11.15;8.90;;;9.40;99.90;;;8.63;100.00;101480.13;4158220;28;20089;-81
2023/04/06 03:12:48;;;;;;;13.30;8.55;;;9.40;99.90;;;8.64;100.00;101481.81;4160688;28;20037;-81
2023/04/06 03:14:49;;;;;;;11.70;8.57;;;9.50;99.90;;;8.68;100.00;101496.38;4160337;28;20473;-81
2023/04/06 03:16:50;;;;;;;14.27;10.23;;;9.50;99.90;;;8.67;100.00;101499.97;4157687;28;20021;-81
2023/04/06 03:18:51;;;;;;;14.48;9.68;;;9.50;99.90;;;8.66;100.00;101506.19;4157450;28;20030;-82
2023/04/06 03:20:55;;;;;;;11.43;9.73;;;9.50;99.90;;;8.66;100.00;101495.66;4158611;28;20022;-82
2023/04/06 03:22:56;;;;;;;9.77;8.18;;;9.50;99.90;;;8.64;100.00;101497.59;4127695;28;20514;-81
2023/04/06 03:24:57;;;;;;;11.93;8.77;;;9.50;99.90;;;8.71;100.00;101505.81;4123770;28;20035;-82
2023/04/06 03:26:57;;;;;;;15.52;10.30;;;9.50;99.90;;;8.71;100.00;101504.03;4156191;28;20428;-82
2023/04/06 03:28:59;;;;;;;16.40;10.43;;;9.50;99.90;;;8.69;100.00;101498.03;4157571;28;20096;-81
2023/04/06 03:31:00;;;;;;;13.13;9.55;;;9.50;99.90;;;8.71;100.00;101498.75;4159208;28;20053;-82
2023/04/06 03:33:01;;;;;;;12.73;9.82;;;9.50;99.90;;;8.72;100.00;101495.16;4149988;28;20375;-82
2023/04/06 03:35:02;;;;;;;14.50;9.55;;;9.50;99.90;;;8.72;100.00;101497.78;4139781;28;20065;-82
2023/04/06 03:37:02;;;;;;;13.43;9.63;;;9.50;99.90;;;8.75;100.00;101500.16;4157481;28;20050;-83
2023/04/06 03:39:05;;;;;;;15.93;10.05;;;9.60;99.90;;;8.74;100.00;101500.31;4157458;28;20489;-82
2023/04/06 03:41:06;;;;;;;10.75;8.65;;;9.60;99.90;;;8.77;100.00;101503.53;4142813;28;20022;-82
2023/04/06 03:43:06;;;;;;;14.18;10.05;;;9.60;99.90;;;8.75;100.00;101489.63;4163621;28;20095;-82
2023/04/06 03:45:08;;;;;;;14.68;9.13;;;9.60;99.90;;;8.78;100.00;101483.31;4139930;28;20122;-82
2023/04/06 03:47:09;;;;;;;13.00;10.57;;;9.60;99.90;;;8.80;100.00;101484.84;4157341;28;20044;-83
2023/04/06 03:49:10;;;;;;;14.50;10.98;;;9.60;99.90;;;8.79;100.00;101479.72;4157265;28;20022;-82
2023/04/06 03:51:11;;;;;;;12.10;10.05;;;9.60;99.90;;;8.77;100.00;101482.47;4143036;28;20014;-82
2023/04/06 03:53:12;;;;;;;12.57;9.13;;;9.60;99.90;;;8.76;100.00;101480.81;4143552;28;20026;-82
2023/04/06 03:55:12;;;;;;;13.43;8.82;;;9.60;99.90;;;8.80;100.00;101476.97;4157266;28;20026;-82
2023/04/06 03:57:13;;;;;;;13.93;9.48;;;9.60;99.90;;;8.81;100.00;101483.06;4157394;28;20041;-82
2023/04/06 03:59:15;;;;;;;16.85;9.02;;;9.60;99.90;;;8.81;100.00;101478.63;4157357;28;20400;-81
2023/04/06 04:01:19;;;;;;;14.43;9.27;;;9.60;99.90;;;8.81;100.00;101477.81;4139696;28;20030;-82
2023/04/06 04:03:21;;;;;;;;;;;9.60;99.90;;;8.77;100.00;101477.22;4156006;28;20088;-82
2023/04/06 04:05:25;;;;;;;13.23;8.40;;;9.60;99.90;;;8.80;100.00;101479.59;4157410;28;19913;-82
2023/04/06 04:07:25;;;;;;;11.63;9.20;;;9.60;99.90;;;8.80;100.00;101471.72;4157247;28;20028;-82
2023/04/06 04:09:26;;;;;;;12.35;9.00;;;9.60;99.90;;;8.84;100.00;101477.56;4159684;28;20033;-82
2023/04/06 04:11:27;;;;;;;11.73;8.82;;;9.60;99.90;;;8.85;100.00;101479.19;4157459;28;20089;-82
2023/04/06 04:13:28;;;;;;;14.52;8.93;;;9.60;99.90;;;8.83;100.00;101481.97;4157282;28;20208;-82
2023/04/06 04:15:29;;;;;;;11.80;8.32;;;9.60;99.90;;;8.85;100.00;101489.72;4157260;28;20037;-82
2023/04/06 04:17:30;;;;;;;13.48;9.43;;;9.60;99.90;;;8.84;100.00;101483.63;4154563;28;20022;-82
2023/04/06 04:19:31;;;;;;;10.30;8.48;;;9.60;99.90;;;8.88;100.00;101489.47;4137243;28;20092;-82
2023/04/06 04:21:32;;;;;;;10.52;7.90;;;9.70;99.90;;;8.87;100.00;101486.00;4137182;28;20516;-82
2023/04/06 04:23:33;;;;;;;12.75;7.88;;;9.60;99.90;;;8.88;100.00;101490.31;4154485;28;20029;-82
2023/04/06 04:25:34;;;;;;;14.70;9.40;;;9.70;99.90;;;8.90;100.00;101483.13;4154559;28;20488;-81
2023/04/06 04:27:34;;;;;;;13.00;8.10;;;9.70;99.90;;;8.88;100.00;101476.31;4136878;28;20030;-81
2023/04/06 04:29:35;;;;;;;10.40;7.85;;;9.70;99.90;;;8.93;100.00;101478.59;4154536;28;20600;-82
2023/04/06 04:31:36;;;;;;;11.00;8.50;;;9.70;99.90;;;8.93;100.00;101478.59;4154458;28;20033;-82
2023/04/06 04:33:37;;;;;;;11.27;8.48;;;9.70;99.90;;;8.92;100.00;101479.53;4136594;28;20073;-82
2023/04/06 04:35:38;;;;;;;11.48;8.23;;;9.70;99.90;;;8.94;100.00;101482.88;4136720;28;20486;-81
2023/04/06 04:37:41;;;;;;;11.15;7.60;;;9.70;99.90;;;8.94;100.00;101488.97;4154368;28;20057;-82
2023/04/06 04:39:42;;;;;;;10.00;7.70;;;9.70;99.90;;;8.92;100.00;101490.06;4137002;28;20026;-81
2023/04/06 04:41:43;;;;;;;10.88;7.85;;;9.70;99.90;;;8.92;100.00;101492.69;4154591;28;20026;-81
2023/04/06 04:43:44;;;;;;;11.82;8.02;;;9.70;99.90;;;8.92;100.00;101485.63;4154106;28;20552;-82
2023/04/06 04:45:45;;;;;;;12.98;8.70;;;9.70;99.90;;;8.93;100.00;101497.00;4136920;28;20026;-82
2023/04/06 04:47:46;;;;;;;13.77;9.30;;;9.70;99.90;;;8.92;100.00;101497.94;4136520;28;20023;-81
2023/04/06 04:49:47;;;;;;;16.08;8.95;;;9.70;99.90;;;8.90;100.00;101493.63;4159931;28;20022;-82
2023/04/06 04:51:47;;;;;;;11.05;8.70;;;9.70;99.90;;;8.87;100.00;101491.25;4154060;28;20096;-82
2023/04/06 04:53:48;;;;;;;9.57;8.23;;;9.70;99.90;;;8.91;100.00;101489.22;4136843;28;20133;-81
2023/04/06 04:55:49;;;;;;;9.57;8.00;;;9.70;99.90;;;8.91;100.00;101486.59;4169332;28;20026;-82
2023/04/06 04:57:50;;;;;;;9.40;7.75;;;9.70;99.90;;;8.90;100.00;101488.38;4152740;28;20025;-81
2023/04/06 04:59:51;;;;;;;14.82;9.18;;;9.70;99.90;;;8.94;100.00;101490.75;4134091;28;20030;-81
2023/04/06 05:01:52;;;;;;;12.57;9.75;;;9.70;99.90;;;8.94;100.00;101491.59;4154015;28;20104;-82
2023/04/06 05:03:53;;;;;;;10.25;7.82;;;9.70;99.90;;;8.94;100.00;101483.69;4153684;28;20030;-82
2023/04/06 05:05:53;;;;;;;12.23;8.18;;;9.70;99.90;;;8.96;100.00;101480.97;4153926;28;20077;-82
2023/04/06 05:07:54;;;;;;;11.93;8.20;;;9.80;99.90;;;8.93;100.00;101468.88;4136277;28;20065;-82
2023/04/06 05:09:56;;;;;;;12.10;8.38;;;9.70;99.90;;;8.94;100.00;101472.34;4153969;28;20046;-82
2023/04/06 05:11:58;;;;;;;12.20;9.20;;;9.80;99.90;;;8.93;100.00;101470.69;4120215;28;20058;-81
2023/04/06 05:13:59;;;;;;;12.77;8.57;;;9.80;99.90;;;8.98;100.00;101473.75;4136601;28;20026;-82
2023/04/06 05:16:00;;;;;;;12.35;8.57;;;9.80;99.90;;;8.94;100.00;101472.34;4136164;28;20109;-82
2023/04/06 05:18:01;;;;;;;12.65;8.40;;;9.80;99.90;;;8.95;100.00;101476.66;4136418;28;20034;-81
2023/04/06 05:20:02;;;;;;;12.38;8.27;;;9.70;99.90;;;8.89;100.00;101464.84;4136380;28;20037;-81
2023/04/06 05:22:03;;;;;;;10.85;8.13;;;9.70;99.90;;;8.89;100.00;101468.31;4136361;28;20572;-82
2023/04/06 05:24:05;;;;;;;13.60;9.25;;;9.70;99.90;;;8.86;100.00;101475.63;4152234;28;20037;-81
2023/04/06 05:26:06;;;;;;;16.08;9.35;;;9.70;99.90;;;8.86;100.00;101476.47;4153395;28;20025;-81
2023/04/06 05:28:07;;;;;;;9.65;8.05;;;9.70;99.90;;;8.86;100.00;101476.47;4153176;28;20108;-80
2023/04/06 05:30:08;;;;;;;10.57;8.15;;;9.70;99.90;;;8.86;100.00;101481.72;4152929;28;20056;-81
2023/04/06 05:32:09;;;;;;;11.98;8.77;;;9.60;99.90;;;8.83;100.00;101466.19;4135975;28;20034;-81
2023/04/06 05:34:12;;;;;;;12.70;9.02;;;9.70;99.90;;;8.84;100.00;101465.22;4155204;28;20508;-81
2023/04/06 05:36:13;;;;;;;12.30;8.73;;;9.60;99.90;;;8.84;100.00;101472.28;4146197;28;20108;-81
2023/04/06 05:38:14;;;;;;;11.18;8.50;;;9.70;99.90;;;8.84;100.00;101481.00;4153556;28;20400;-81
2023/04/06 05:40:15;;;;;;;14.07;9.25;;;9.70;99.90;;;8.82;100.00;101464.50;4136104;28;20030;-81
2023/04/06 05:42:16;;;;;;;13.70;9.73;;;9.60;99.90;;;8.85;100.00;101472.16;4153454;28;20029;-81
2023/04/06 05:44:17;;;;;;;12.85;8.65;;;9.60;99.90;;;8.81;100.00;101476.00;4153406;28;20033;-81
2023/04/06 05:46:19;;;;;;;13.05;9.57;;;9.60;99.90;;;8.77;100.00;101474.59;4153461;28;20397;-81
2023/04/06 05:48:20;;;;;;;12.18;10.25;;;9.60;99.90;;;8.81;100.00;101464.66;4135786;28;20445;-81
2023/04/06 05:50:22;;;;;;;12.90;9.27;;;9.60;99.90;;;8.80;100.00;101471.72;4152947;28;20029;-82
2023/04/06 05:52:23;;;;;;;12.50;9.50;;;9.60;99.90;;;8.80;100.00;101461.19;4135930;28;20027;-81
2023/04/06 05:54:24;;;;;;;15.70;9.48;;;9.60;99.90;;;8.82;100.00;101461.88;4153169;28;20037;-81
2023/04/06 05:56:25;;;;;;;12.82;9.45;;;9.60;99.90;;;8.85;100.00;101460.78;4153067;28;20029;-81
2023/04/06 05:58:26;;;;;;;11.90;8.60;;;9.60;99.90;;;8.86;100.00;101454.56;4152720;28;20374;-80
2023/04/06 06:00:27;;;;;;;13.85;9.38;;;9.70;99.90;;;8.88;100.00;101456.13;4135667;28;20106;-81
2023/04/06 06:02:30;;;;;;;15.50;10.20;;;9.70;99.90;;;8.93;100.00;101468.88;4152849;28;20440;-81
2023/04/06 06:04:31;;;;;;;13.43;10.10;;;9.70;99.90;;;8.94;100.00;101464.44;4139609;28;20053;-81
2023/04/06 06:06:32;;;;;;;11.95;9.10;;;9.70;99.90;;;8.94;100.00;101454.75;4154083;28;20025;-81
2023/04/06 06:08:33;;;;;;;12.70;9.60;;;9.70;99.90;;;8.98;100.00;101448.28;4135640;28;20069;-81
2023/04/06 06:10:34;;;;;;;12.95;10.02;;;9.80;99.90;;;9.00;100.00;101445.50;4151686;28;20026;-81
2023/04/06 06:12:35;;;;;;;12.15;9.35;;;9.80;99.90;;;9.07;100.00;101455.41;4135637;28;20049;-81
2023/04/06 06:14:36;;;;;;;12.88;9.75;;;9.90;99.90;;;9.10;100.00;101451.69;4151203;28;20030;-81
2023/04/06 06:16:37;;;;;;;11.05;8.95;;;9.90;99.90;;;9.06;100.00;101451.09;4152991;28;20101;-81
2023/04/06 06:18:37;;;;;;;10.88;8.80;;;9.80;99.90;;;9.00;100.00;101450.78;4152641;28;20108;-82
2023/04/06 06:20:38;;;;;;;10.70;8.80;;;9.80;99.90;;;9.01;100.00;101452.47;4135385;28;20117;-81
2023/04/06 06:22:40;;;;;;;13.80;9.45;;;9.80;99.90;;;9.01;100.00;101450.66;4175714;28;20056;-81
2023/04/06 06:24:40;;;;;;;12.13;8.70;;;9.70;99.90;;;9.05;100.00;101451.25;4154705;28;20045;-81
2023/04/06 06:26:42;;;;;;;14.75;9.52;;;9.80;99.90;;;9.09;100.00;101458.75;4144118;28;20026;-81
2023/04/06 06:28:43;;;;;;;10.82;8.40;;;9.80;99.90;;;9.18;100.00;101467.66;4135283;28;20506;-81
2023/04/06 06:30:44;;;;;;;11.23;8.50;;;9.80;99.90;;;9.22;100.00;101456.75;4135048;28;20105;-80
2023/04/06 06:32:46;;;;;;;13.13;9.75;;;9.90;99.90;;;9.31;100.00;101465.66;4141730;28;20019;-81
2023/04/06 06:34:46;;;;;;;15.57;8.82;;;10.00;99.90;;;9.39;100.00;101473.75;4142193;28;20046;-81
2023/04/06 06:36:47;;;;;;;13.60;9.48;;;10.10;99.90;;;9.44;100.00;101477.66;4158017;28;20381;-81
2023/04/06 06:38:48;;;;;;;11.00;7.93;;;10.10;99.90;;;9.53;100.00;101483.94;4152430;28;20030;-81
2023/04/06 06:40:49;;;;;;;9.50;7.72;;;10.20;99.90;;;9.58;100.00;101478.28;4134322;28;20061;-81
2023/04/06 06:42:51;;;;;;;13.32;9.52;;;10.30;99.90;;;9.66;100.00;101475.81;4155814;28;20030;-82
2023/04/06 06:44:52;;;;;;;11.68;8.07;;;10.40;99.90;;;9.76;100.00;101480.16;4152415;28;20400;-82
2023/04/06 06:46:53;;;;;;;12.18;8.32;;;10.50;99.90;;;9.90;100.00;101471.91;4134936;28;20023;-81
2023/04/06 06:48:54;;;;;;;12.23;8.35;;;10.60;99.90;;;10.02;100.00;101473.47;4152326;28;20022;-81
2023/04/06 06:50:55;;;;;;;12.27;7.82;;;10.70;99.90;;;10.17;100.00;101473.94;4135047;28;20432;-81
2023/04/06 06:52:56;;;;;;;8.95;7.07;;;10.80;99.90;;;10.35;100.00;101474.09;4154083;28;20037;-81
2023/04/06 06:54:57;;;;;;;10.38;6.90;;;11.00;99.90;;;10.50;100.00;101472.75;4152302;28;20390;-81
2023/04/06 06:56:58;;;;;;;11.23;6.97;;;11.20;99.90;;;10.66;100.00;101483.59;4136864;28;20374;-82
2023/04/06 06:58:58;;;;;;;13.55;7.30;;;11.30;99.90;;;10.76;100.00;101473.84;4153958;28;20038;-81
2023/04/06 07:00:59;;;;;;;9.63;5.97;;;11.40;99.90;;;10.85;100.00;101473.00;4134983;28;20041;-81
2023/04/06 07:03:00;;;;;;;8.75;6.50;;;11.50;99.90;;;10.88;100.00;101482.47;4147148;28;20077;-83
2023/04/06 07:05:03;;;;;;;10.75;7.35;;;11.50;99.90;;;10.89;100.00;101484.97;4152208;28;20030;-81
2023/04/06 07:07:03;;;;;;;11.27;7.20;;;11.60;99.90;;;10.84;100.00;101476.63;4152349;28;20037;-82
2023/04/06 07:09:04;;;;;;;14.07;7.13;;;11.60;99.90;;;10.81;100.00;101484.00;4152271;28;20030;-81
2023/04/06 07:11:05;;;;;;;10.65;7.30;;;11.50;99.90;;;10.81;100.00;101482.19;4134662;28;20018;-82
2023/04/06 07:13:06;;;;;;;9.60;6.95;;;11.60;99.90;;;10.85;100.00;101480.94;4162457;28;20026;-82
2023/04/06 07:15:08;;;;;;;14.48;8.57;;;11.60;99.90;;;10.88;100.00;101493.84;4152276;28;20038;-81
2023/04/06 07:17:10;;;;;;;11.40;6.43;;;11.60;99.90;;;10.87;100.00;101486.91;4150939;28;20034;-82
2023/04/06 07:19:11;;;;;;;10.35;6.70;;;11.60;99.90;;;10.92;100.00;101497.88;4134329;28;20082;-82
2023/04/06 07:21:12;;;;;;;12.30;7.35;;;11.70;99.90;;;10.91;100.00;101498.84;4152130;28;20038;-81
2023/04/06 07:23:13;;;;;;;9.60;6.38;;;11.70;99.90;;;10.95;100.00;101502.06;4142218;28;20034;-81
2023/04/06 07:25:14;;;;;;;11.77;7.20;;;11.70;99.90;;;10.96;100.00;101495.81;4152051;28;20029;-81
2023/04/06 07:27:16;;;;;;;13.25;6.75;;;11.70;99.90;;;11.01;100.00;101498.84;4134666;28;20019;-81
2023/04/06 07:29:17;;;;;;;11.55;7.20;;;11.80;99.90;;;11.09;100.00;101501.63;4134608;28;20145;-79
2023/04/06 07:31:20;;;;;;;9.38;7.35;;;11.80;99.90;;;11.23;100.00;101506.44;4151935;28;20491;-79
2023/04/06 07:33:21;;;;;;;9.02;6.75;;;11.90;99.90;;;11.31;100.00;101518.97;4134619;28;20501;-78
2023/04/06 07:35:26;;;;;;;11.45;6.97;;;12.00;99.90;;;11.36;100.00;101509.63;4134394;28;20054;-79
2023/04/06 07:37:27;;;;;;;9.18;6.95;;;12.10;99.90;;;11.40;100.00;101504.91;4151908;28;20029;-79
2023/04/06 07:39:28;;;;;;;11.95;6.43;;;12.20;99.90;;;11.48;100.00;101499.75;4158267;28;20464;-79
2023/04/06 07:41:29;;;;;;;9.02;5.97;;;12.20;99.90;;;11.56;100.00;101499.84;4134716;28;20445;-79
2023/04/06 07:43:30;;;;;;;7.47;5.50;;;12.30;99.90;;;11.47;100.00;101505.97;4152292;28;20168;-78
2023/04/06 07:45:31;;;;;;;6.78;4.85;;;12.30;99.90;;;11.30;100.00;101504.09;4151777;28;20444;-79
2023/04/06 07:47:32;;;;;;;7.15;4.20;;;12.20;99.90;;;11.33;100.00;101499.34;4134477;28;20050;-79
2023/04/06 07:49:33;;;;;;;9.68;4.85;;;12.20;99.90;;;11.42;100.00;101498.50;4152021;28;20109;-79
2023/04/06 07:51:37;;;;;;;8.15;5.20;;;12.20;99.90;;;11.42;100.00;101500.31;4151914;28;20026;-79
2023/04/06 07:53:38;;;;;;;6.82;4.72;;;12.20;99.90;;;11.42;100.00;101508.22;4154676;28;20045;-79
2023/04/06 07:55:39;;;;;;;8.95;4.57;;;12.30;99.90;;;11.57;100.00;101502.34;4155048;28;20026;-80
2023/04/06 07:57:40;;;;;;;6.25;3.97;;;12.30;99.90;;;11.65;100.00;101498.97;4155092;28;20054;-79
2023/04/06 07:59:41;;;;;;;8.23;4.32;;;12.40;99.90;;;11.73;100.00;101491.22;4154941;28;20029;-79
2023/04/06 08:01:42;;;;;;;8.35;4.30;;;12.50;99.90;;;11.88;100.00;101497.69;4147449;28;20525;-79
2023/04/06 08:03:43;;;;;;;7.35;4.50;;;12.60;99.90;;;12.04;100.00;101503.16;4154693;28;20028;-79
2023/04/06 08:05:44;;;;;;;9.48;4.30;;;12.70;99.90;;;12.20;100.00;101499.88;4154957;28;20029;-79
2023/04/06 08:07:45;;;;;;;7.35;4.22;;;12.90;99.90;;;12.38;100.00;101497.28;4154796;28;20026;-79
2023/04/06 08:09:46;;;;;;;10.88;4.32;;;13.10;99.90;;;12.63;100.00;101502.66;4154661;28;20029;-79
2023/04/06 08:11:48;;;;;;;8.52;3.58;;;13.30;99.90;;;12.85;100.00;101509.31;4154858;28;20018;-79
2023/04/06 08:13:49;;;;;;;6.57;3.75;;;13.50;99.90;;;13.17;100.00;101516.75;4155024;28;20022;-79
2023/04/06 08:15:50;;;;;;;8.25;4.43;;;13.80;99.90;;;13.37;100.00;101514.72;4154702;28;20045;-79
2023/04/06 08:17:51;;;;;;;5.93;3.97;;;14.00;99.90;;;13.44;100.00;101521.88;4154466;28;20057;-79
2023/04/06 08:19:51;;;;;;;6.97;4.30;;;14.10;99.90;;;13.47;100.00;101523.44;4154728;28;20492;-79
2023/04/06 08:21:52;;;;;;;7.30;4.03;;;14.20;99.90;;;13.33;100.00;101527.44;4137067;28;20026;-79